Time;durP1;ratioP1;P1;durP2;ratioP2;P2;SDS_P1;SDS_P2;PMS_P1;PMS_P2;Temp;Humidity;BMP_temperature;BMP_pressure;BME280_temperature;BME280_humidity;BME280_pressure;Samples;Min_cycle;Max_cycle;Signal;HPM_P1;HPM_P2
2023/03/13 00:00:16;;;;;;;14.30;2.50;;;;;;;9.20;67.75;100161.47;6174111;22;97516;-51
2023/03/13 00:02:44;;;;;;;14.87;2.40;;;;;;;9.24;67.56;100158.50;6174759;22;98013;-51
2023/03/13 00:05:12;;;;;;;10.13;2.80;;;;;;;9.23;67.65;100151.50;6172852;22;97378;-51
2023/03/13 00:07:39;;;;;;;8.03;2.10;;;;;;;9.26;67.65;100142.28;6173430;22;96949;-51
2023/03/13 00:10:05;;;;;;;10.43;2.30;;;;;;;9.28;67.81;100146.03;6148134;22;96925;-52
2023/03/13 00:12:31;;;;;;;4.63;2.10;;;;;;;9.27;67.68;100130.81;6174644;22;97665;-51
2023/03/13 00:14:56;;;;;;;16.60;3.10;;;;;;;9.32;67.70;100140.28;6173959;22;108267;-51
2023/03/13 00:17:21;;;;;;;26.93;2.93;;;;;;;9.32;67.56;100132.81;6172791;22;101211;-52
2023/03/13 00:19:47;;;;;;;7.23;2.40;;;;;;;9.28;67.31;100132.31;6174934;22;97049;-51
2023/03/13 00:22:12;;;;;;;15.93;2.50;;;;;;;9.23;67.35;100130.28;6174108;22;97277;-51
2023/03/13 00:24:37;;;;;;;6.23;2.10;;;;;;;9.19;67.33;100129.78;6174256;22;101577;-52
2023/03/13 00:27:04;;;;;;;38.53;2.90;;;;;;;9.15;67.18;100128.53;6174930;22;96658;-54
2023/03/13 00:29:32;;;;;;;3.87;1.93;;;;;;;9.10;67.21;100123.75;6174639;22;96603;-51
2023/03/13 00:31:57;;;;;;;8.20;1.57;;;;;;;9.06;67.35;100111.03;6174346;22;97168;-53
2023/03/13 00:34:25;;;;;;;3.80;1.40;;;;;;;9.04;67.33;100101.81;6174710;22;96611;-52
2023/03/13 00:36:50;;;;;;;4.43;2.20;;;;;;;9.00;67.17;100115.75;6174186;22;97188;-51
2023/03/13 00:39:16;;;;;;;7.37;1.83;;;;;;;8.98;67.15;100110.00;6174277;22;96967;-51
2023/03/13 00:41:42;;;;;;;9.10;1.60;;;;;;;8.95;67.33;100102.75;6174097;22;103178;-50
2023/03/13 00:44:08;;;;;;;4.30;1.40;;;;;;;8.93;67.12;100091.53;6174727;22;96625;-51
2023/03/13 00:46:34;;;;;;;7.17;2.10;;;;;;;8.93;67.34;100097.03;6174707;22;96685;-51
2023/03/13 00:49:00;;;;;;;6.53;1.77;;;;;;;8.92;67.23;100090.03;6174174;22;96709;-50
2023/03/13 00:51:26;;;;;;;8.30;1.90;;;;;;;8.90;67.09;100086.28;6173913;22;103162;-50
2023/03/13 00:53:52;;;;;;;6.00;1.70;;;;;;;8.88;67.21;100077.81;6174270;22;97049;-51
2023/03/13 00:56:19;;;;;;;10.40;1.70;;;;;;;8.87;67.22;100082.53;6174915;22;97388;-51
2023/03/13 00:58:46;;;;;;;10.37;1.73;;;;;;;8.88;67.39;100083.31;6174419;22;96591;-50
2023/03/13 01:01:27;;;;;;;6.33;1.27;;;;;;;8.84;67.20;100071.81;6174160;22;97461;-51
2023/03/13 01:04:14;;;;;;;4.63;1.27;;;;;;;8.80;67.25;100074.78;6174461;22;96815;-51
2023/03/13 01:06:43;;;;;;;6.80;1.37;;;;;;;8.80;67.23;100066.56;6172417;22;97134;-50
2023/03/13 01:09:12;;;;;;;4.17;1.83;;;;;;;8.81;67.39;100062.59;6173934;22;96773;-53
2023/03/13 01:11:39;;;;;;;6.47;2.13;;;;;;;8.83;67.53;100059.34;6174007;22;97114;-50
2023/03/13 01:14:08;;;;;;;4.27;1.60;;;;;;;8.85;67.48;100052.13;6174169;22;96520;-53
2023/03/13 01:16:35;;;;;;;4.60;1.60;;;;;;;8.85;67.45;100057.59;6174119;22;96916;-53
2023/03/13 01:19:03;;;;;;;9.40;1.90;;;;;;;8.88;67.42;100051.13;6174094;22;97000;-52
2023/03/13 01:21:29;;;;;;;6.77;1.57;;;;;;;8.86;67.30;100037.19;6173775;22;96877;-52
2023/03/13 01:23:55;;;;;;;7.57;2.20;;;;;;;8.87;67.38;100038.66;6174556;22;97375;-50
2023/03/13 01:26:21;;;;;;;9.97;2.10;;;;;;;8.88;67.45;100039.41;6174150;22;97007;-50
2023/03/13 01:28:47;;;;;;;2.53;1.40;;;;;;;8.91;67.55;100025.44;6174063;22;96808;-53
2023/03/13 01:31:24;;;;;;;10.10;2.33;;;;;;;8.91;67.43;100027.47;6170832;22;96752;-52
2023/03/13 01:33:53;;;;;;;6.80;1.50;;;;;;;8.89;67.58;100025.19;6173397;22;97093;-52
2023/03/13 01:36:19;;;;;;;4.70;1.30;;;;;;;8.86;67.48;100014.47;6173377;22;96548;-52
2023/03/13 01:38:48;;;;;;;5.43;1.03;;;;;;;8.86;67.44;100007.00;6173671;22;96958;-51
2023/03/13 01:41:14;;;;;;;5.63;1.50;;;;;;;8.85;67.28;100005.50;6173047;22;96612;-51
2023/03/13 01:43:39;;;;;;;15.47;1.63;;;;;;;8.87;67.59;100010.47;6174323;22;96985;-51
2023/03/13 01:46:12;;;;;;;1.60;0.90;;;;;;;8.85;67.29;99997.25;6174200;22;96985;-52
2023/03/13 01:48:56;;;;;;;0.90;0.70;;;;;;;8.81;67.53;99987.78;6174181;22;97007;-51
2023/03/13 01:51:28;;;;;;;5.30;1.40;;;;;;;8.79;67.51;99982.81;6173868;22;97806;-51
2023/03/13 01:54:00;;;;;;;7.73;1.40;;;;;;;8.79;67.48;99977.31;6173634;22;96611;-52
2023/03/13 01:56:39;;;;;;;3.43;0.90;;;;;;;8.78;67.43;99966.84;6173610;22;97043;-51
2023/03/13 01:59:07;;;;;;;1.30;0.77;;;;;;;8.77;67.33;99959.84;6173995;22;96804;-51
2023/03/13 02:01:34;;;;;;;4.10;1.20;;;;;;;8.76;67.45;99948.13;6174058;22;97583;-51
2023/03/13 02:03:59;;;;;;;3.47;1.50;;;;;;;8.75;67.58;99943.91;6174138;22;97577;-51
2023/03/13 02:06:28;;;;;;;6.63;1.37;;;;;;;8.75;67.61;99935.69;6173205;22;97052;-51
2023/03/13 02:09:00;;;;;;;8.13;1.70;;;;;;;8.80;67.89;99934.91;6173483;22;96703;-51
2023/03/13 02:11:39;;;;;;;3.70;1.23;;;;;;;8.88;68.07;99937.94;6173968;22;97940;-51
2023/03/13 02:14:05;;;;;;;7.50;2.13;;;;;;;8.91;67.93;99926.69;6174259;22;97476;-51
2023/03/13 02:16:33;;;;;;;5.83;1.60;;;;;;;8.93;67.95;99912.50;6173465;22;97050;-51
2023/03/13 02:19:01;;;;;;;8.97;2.07;;;;;;;9.01;68.03;99919.75;6173312;22;96803;-51
2023/03/13 02:21:40;;;;;;;13.00;1.90;;;;;;;9.12;68.38;99916.25;6173031;22;96784;-51
2023/03/13 02:24:39;;;;;;;15.23;2.73;;;;;;;9.19;68.77;99909.50;6173716;22;96992;-52
2023/03/13 02:27:06;;;;;;;13.43;2.17;;;;;;;9.28;68.44;99898.28;6173971;22;97215;-52
2023/03/13 02:29:31;;;;;;;11.60;2.60;;;;;;;9.35;68.44;99892.28;6174360;22;97887;-51
2023/03/13 02:31:57;;;;;;;9.30;2.40;;;;;;;9.43;68.61;99888.50;6173570;22;97260;-52
2023/03/13 02:34:27;;;;;;;11.37;2.00;;;;;;;9.52;68.48;99879.25;6173073;22;97051;-51
2023/03/13 02:36:53;;;;;;;11.10;2.50;;;;;;;9.55;68.48;99872.75;6173585;22;96806;-52
2023/03/13 02:39:22;;;;;;;10.23;2.20;;;;;;;9.60;68.34;99866.50;6173713;22;96901;-51
2023/03/13 02:41:49;;;;;;;10.30;1.80;;;;;;;9.64;68.34;99866.97;6173493;22;96555;-52
2023/03/13 02:44:14;;;;;;;15.93;2.50;;;;;;;9.68;68.29;99862.72;6172899;22;97027;-51
2023/03/13 02:46:49;;;;;;;3.73;1.90;;;;;;;9.69;68.30;99863.47;6172656;22;97049;-51
2023/03/13 02:49:26;;;;;;;7.30;1.90;;;;;;;9.68;68.31;99862.72;6173554;22;96956;-51
2023/03/13 02:51:54;;;;;;;9.20;2.63;;;;;;;9.68;68.22;99845.47;6173678;22;97077;-51
2023/03/13 02:54:30;;;;;;;5.93;1.77;;;;;;;9.70;68.31;99838.25;6173572;22;99649;-51
2023/03/13 02:56:59;;;;;;;10.60;2.10;;;;;;;9.72;68.35;99829.47;6173647;22;97209;-51
2023/03/13 02:59:25;;;;;;;15.07;2.60;;;;;;;9.73;68.19;99825.50;6146236;22;97098;-51
2023/03/13 03:01:51;;;;;;;9.70;2.20;;;;;;;9.73;68.17;99809.03;6173263;22;97356;-52
2023/03/13 03:04:17;;;;;;;11.37;2.10;;;;;;;9.70;68.27;99808.03;6173301;22;97277;-52
2023/03/13 03:06:43;;;;;;;10.70;2.40;;;;;;;9.75;68.36;99799.03;6173291;22;96897;-51
2023/03/13 03:09:08;;;;;;;7.53;2.03;;;;;;;9.77;68.36;99788.28;6170824;22;97097;-51
2023/03/13 03:11:33;;;;;;;9.30;2.10;;;;;;;9.79;68.36;99785.00;6172198;22;97076;-51
2023/03/13 03:13:59;;;;;;;6.70;2.13;;;;;;;9.81;68.44;99777.00;6173111;22;97120;-51
2023/03/13 03:16:24;;;;;;;8.13;2.10;;;;;;;9.84;68.37;99767.75;6173480;22;96921;-51
2023/03/13 03:18:49;;;;;;;6.93;2.23;;;;;;;9.85;68.42;99757.53;6173255;22;96871;-51
2023/03/13 03:21:15;;;;;;;12.53;2.60;;;;;;;9.87;68.37;99758.50;6173044;22;97157;-50
2023/03/13 03:23:40;;;;;;;4.93;1.70;;;;;;;9.87;68.42;99747.53;6173123;22;96998;-51
2023/03/13 03:26:06;;;;;;;9.67;2.40;;;;;;;9.86;68.51;99754.25;6173301;22;96463;-51
2023/03/13 03:28:32;;;;;;;7.90;2.10;;;;;;;9.90;68.33;99746.50;6174657;22;97391;-51
2023/03/13 03:31:03;;;;;;;8.30;2.17;;;;;;;9.90;68.42;99749.25;6174073;22;108763;-51
2023/03/13 03:33:28;;;;;;;9.87;2.00;;;;;;;9.91;68.46;99736.25;6174921;22;96744;-51
2023/03/13 03:35:59;;;;;;;10.50;1.87;;;;;;;9.93;68.58;99734.50;6174222;22;96642;-52
2023/03/13 03:38:24;;;;;;;13.60;2.47;;;;;;;9.93;68.48;99723.50;6174100;22;97079;-51
2023/03/13 03:40:49;;;;;;;8.63;2.33;;;;;;;9.94;68.52;99733.22;6175112;22;98069;-51
2023/03/13 03:43:14;;;;;;;5.83;1.93;;;;;;;9.91;68.58;99712.28;6173653;22;109403;-51
2023/03/13 03:45:40;;;;;;;18.73;2.60;;;;;;;9.92;68.49;99705.53;6173268;22;100412;-51
2023/03/13 03:48:05;;;;;;;7.23;1.23;;;;;;;9.91;68.51;99700.53;6173843;22;101330;-51
2023/03/13 03:50:30;;;;;;;8.27;2.10;;;;;;;9.90;68.44;99697.03;6173761;22;96651;-51
2023/03/13 03:52:56;;;;;;;5.13;1.87;;;;;;;9.90;68.52;99688.06;6174552;22;108935;-51
2023/03/13 03:55:21;;;;;;;7.90;1.97;;;;;;;9.91;68.58;99686.81;6174691;22;99413;-51
2023/03/13 03:57:46;;;;;;;13.43;2.37;;;;;;;9.92;68.52;99680.03;6174462;22;96866;-51
2023/03/13 04:00:14;;;;;;;8.27;2.40;;;;;;;9.92;68.52;99667.06;6173461;22;97194;-51
2023/03/13 04:02:40;;;;;;;10.57;2.30;;;;;;;9.95;68.47;99668.78;6174129;22;97560;-51
2023/03/13 04:05:05;;;;;;;12.43;3.00;;;;;;;9.97;68.57;99660.78;6174533;22;97104;-51
2023/03/13 04:07:30;;;;;;;8.73;2.20;;;;;;;9.99;68.45;99663.00;6173516;22;97165;-51
2023/03/13 04:09:56;;;;;;;9.67;2.03;;;;;;;9.99;68.49;99657.50;6174413;22;96511;-51
2023/03/13 04:12:21;;;;;;;7.43;2.63;;;;;;;9.96;68.58;99645.53;6174794;22;97585;-51
2023/03/13 04:14:46;;;;;;;11.07;2.10;;;;;;;10.00;68.40;99648.03;6174366;22;97014;-51
2023/03/13 04:17:12;;;;;;;13.77;2.03;;;;;;;10.01;68.67;99644.00;6174584;22;96766;-52
2023/03/13 04:19:38;;;;;;;8.07;1.80;;;;;;;10.02;68.53;99645.50;6173871;22;96761;-51
2023/03/13 04:22:03;;;;;;;10.20;1.63;;;;;;;10.03;68.60;99636.75;6173922;22;97263;-52
2023/03/13 04:24:28;;;;;;;9.87;1.67;;;;;;;10.04;68.56;99630.00;6173995;22;96791;-51
2023/03/13 04:26:54;;;;;;;5.53;1.70;;;;;;;10.07;68.52;99617.25;6171603;22;97176;-51
2023/03/13 04:29:19;;;;;;;7.20;2.17;;;;;;;10.06;68.58;99621.25;6173117;22;96829;-52
2023/03/13 04:31:44;;;;;;;16.93;2.30;;;;;;;10.07;68.70;99612.47;6173711;22;97068;-52
2023/03/13 04:34:10;;;;;;;11.23;2.50;;;;;;;10.08;68.66;99603.00;6173975;22;101995;-51
2023/03/13 04:36:35;;;;;;;4.73;1.87;;;;;;;10.10;68.81;99599.72;6173334;22;100784;-51
2023/03/13 04:39:00;;;;;;;5.63;1.87;;;;;;;10.10;68.73;99592.22;6173054;22;97914;-51
2023/03/13 04:41:25;;;;;;;9.10;2.10;;;;;;;10.11;68.61;99588.22;6174656;22;97082;-51
2023/03/13 04:43:51;;;;;;;9.47;2.00;;;;;;;10.11;68.66;99588.22;6173924;22;96582;-52
2023/03/13 04:46:17;;;;;;;10.20;2.93;;;;;;;10.13;68.57;99579.50;6172894;22;97578;-52
2023/03/13 04:48:42;;;;;;;10.70;2.30;;;;;;;10.14;68.71;99572.72;6172000;22;97904;-51
2023/03/13 04:51:08;;;;;;;8.80;2.07;;;;;;;10.14;68.68;99580.97;6174213;22;97032;-52
2023/03/13 04:53:33;;;;;;;10.10;2.97;;;;;;;10.14;68.90;99567.97;6174385;22;96617;-52
2023/03/13 04:55:59;;;;;;;14.03;2.03;;;;;;;10.15;68.94;99569.47;6174305;22;97589;-51
2023/03/13 04:58:24;;;;;;;6.70;2.00;;;;;;;10.15;69.09;99557.75;6172744;22;97137;-52
2023/03/13 05:00:49;;;;;;;7.53;2.00;;;;;;;10.18;68.97;99545.69;6173396;22;109615;-51
2023/03/13 05:03:15;;;;;;;6.63;1.70;;;;;;;10.20;68.98;99549.41;6174272;22;96947;-51
2023/03/13 05:05:40;;;;;;;6.77;1.60;;;;;;;10.23;69.11;99528.41;6173016;22;97384;-51
2023/03/13 05:08:06;;;;;;;4.50;1.97;;;;;;;10.25;69.05;99534.13;6171704;22;112843;-51
2023/03/13 05:10:31;;;;;;;11.60;1.90;;;;;;;10.26;68.97;99508.91;6173482;22;96817;-51
2023/03/13 05:12:56;;;;;;;6.70;1.77;;;;;;;10.26;68.97;99519.13;6173538;22;97040;-51
2023/03/13 05:15:21;;;;;;;10.30;2.03;;;;;;;10.26;69.01;99508.91;6170554;22;97230;-51
2023/03/13 05:17:47;;;;;;;11.93;2.60;;;;;;;10.28;69.10;99528.34;6170659;22;104530;-52
2023/03/13 05:20:12;;;;;;;5.17;1.73;;;;;;;10.31;69.24;99518.34;6173603;22;97647;-51
2023/03/13 05:22:37;;;;;;;13.33;2.80;;;;;;;10.32;69.29;99528.06;6173633;22;97334;-51
2023/03/13 05:25:04;;;;;;;8.87;1.83;;;;;;;10.35;69.19;99525.00;6174157;22;96539;-52
2023/03/13 05:27:30;;;;;;;3.60;1.40;;;;;;;10.37;69.31;99508.03;6173033;22;97859;-51
2023/03/13 05:29:55;;;;;;;12.13;2.00;;;;;;;10.36;69.27;99501.78;6173702;22;96665;-51
2023/03/13 05:32:20;;;;;;;12.67;2.20;;;;;;;10.37;69.44;99497.78;6174422;22;97203;-52
2023/03/13 05:34:45;;;;;;;7.33;1.80;;;;;;;10.40;69.40;99493.97;6173819;22;97188;-52
2023/03/13 05:37:11;;;;;;;8.07;1.80;;;;;;;10.44;69.47;99480.66;6172344;22;102354;-51
2023/03/13 05:39:36;;;;;;;5.73;2.03;;;;;;;10.46;69.47;99478.13;6173472;22;97362;-51
2023/03/13 05:42:01;;;;;;;8.40;2.23;;;;;;;10.47;69.61;99467.88;6173591;22;100940;-51
2023/03/13 05:44:27;;;;;;;6.93;1.60;;;;;;;10.49;69.59;99477.09;6174064;22;97866;-51
2023/03/13 05:46:52;;;;;;;8.40;1.93;;;;;;;10.50;69.70;99462.13;6173749;22;96823;-51
2023/03/13 05:49:17;;;;;;;13.00;2.40;;;;;;;10.52;69.69;99465.09;6172231;22;103810;-51
2023/03/13 05:51:43;;;;;;;9.23;1.57;;;;;;;10.56;69.91;99456.53;6173913;22;96985;-51
2023/03/13 05:54:08;;;;;;;7.57;1.80;;;;;;;10.57;69.79;99458.03;6173788;22;98785;-52
2023/03/13 05:56:33;;;;;;;4.30;1.37;;;;;;;10.61;69.86;99441.22;6172768;22;110467;-51
2023/03/13 05:58:59;;;;;;;13.27;2.17;;;;;;;10.63;69.86;99446.94;6172764;22;97626;-51
2023/03/13 06:01:24;;;;;;;6.73;1.43;;;;;;;10.64;70.05;99442.94;6172583;22;98093;-51
2023/03/13 06:03:49;;;;;;;11.43;1.87;;;;;;;10.67;70.06;99448.13;6173276;22;100052;-52
2023/03/13 06:06:14;;;;;;;7.67;2.10;;;;;;;10.70;69.96;99447.09;6172861;22;104531;-51
2023/03/13 06:08:40;;;;;;;5.10;1.53;;;;;;;10.73;70.17;99445.28;6172537;22;97224;-51
2023/03/13 06:11:05;;;;;;;6.37;1.30;;;;;;;10.78;70.26;99445.22;6174023;22;97212;-51
2023/03/13 06:13:30;;;;;;;2.77;1.40;;;;;;;10.82;70.26;99433.88;6173153;22;96967;-52
2023/03/13 06:15:57;;;;;;;6.03;1.30;;;;;;;10.87;70.10;99430.31;6173423;22;97059;-52
2023/03/13 06:18:23;;;;;;;4.87;1.50;;;;;;;10.86;70.08;99426.81;6172262;22;97333;-51
2023/03/13 06:20:54;;;;;;;3.77;1.30;;;;;;;10.88;70.33;99424.28;6173387;22;96778;-51
2023/03/13 06:23:19;;;;;;;5.47;1.70;;;;;;;10.92;70.45;99419.22;6174640;22;96959;-51
2023/03/13 06:25:48;;;;;;;8.87;1.53;;;;;;;10.96;70.39;99410.69;6172987;22;97112;-51
2023/03/13 06:28:13;;;;;;;2.40;1.10;;;;;;;10.99;70.25;99412.34;6172795;22;97034;-51
2023/03/13 06:30:39;;;;;;;2.87;1.20;;;;;;;11.03;70.24;99407.31;6173683;22;96936;-51
2023/03/13 06:33:05;;;;;;;3.73;1.03;;;;;;;11.05;70.32;99413.03;6173675;22;96997;-51
2023/03/13 06:35:30;;;;;;;3.93;1.30;;;;;;;11.11;70.37;99408.19;6173175;22;97378;-51
2023/03/13 06:37:55;;;;;;;2.80;1.20;;;;;;;11.14;70.30;99402.34;6172707;22;98989;-51
2023/03/13 06:40:21;;;;;;;3.33;1.00;;;;;;;11.15;70.19;99392.09;6172402;22;99375;-51
2023/03/13 06:42:46;;;;;;;6.80;1.20;;;;;;;11.18;70.18;99394.53;6173737;22;96731;-51
2023/03/13 06:45:11;;;;;;;3.20;1.23;;;;;;;11.21;70.35;99392.72;6173265;22;103180;-51
2023/03/13 06:47:36;;;;;;;2.80;1.00;;;;;;;11.23;70.39;99401.94;6172524;22;97517;-51
2023/03/13 06:50:02;;;;;;;1.90;1.30;;;;;;;11.26;70.35;99397.41;6172560;22;96971;-50
2023/03/13 06:52:27;;;;;;;4.23;1.23;;;;;;;11.30;70.48;99389.56;6173620;22;97134;-51
2023/03/13 06:54:53;;;;;;;5.30;1.37;;;;;;;11.32;70.60;99389.78;6173665;22;97526;-50
2023/03/13 06:57:18;;;;;;;2.40;1.23;;;;;;;11.38;70.60;99392.44;6172128;22;105250;-51
2023/03/13 06:59:43;;;;;;;3.33;1.17;;;;;;;11.40;70.56;99379.63;6173591;22;96724;-51
2023/03/13 07:02:11;;;;;;;3.53;1.30;;;;;;;11.43;70.63;99378.56;6174399;22;96812;-51
2023/03/13 07:04:36;;;;;;;1.23;0.90;;;;;;;11.48;70.47;99369.47;6175069;22;97352;-51
2023/03/13 07:07:02;;;;;;;4.63;1.23;;;;;;;11.49;70.53;99379.19;6174345;22;97249;-51
2023/03/13 07:09:27;;;;;;;3.03;1.30;;;;;;;11.55;70.52;99368.84;6174321;22;96960;-50
2023/03/13 07:11:53;;;;;;;1.60;0.90;;;;;;;11.57;70.63;99362.78;6175246;22;97034;-50
2023/03/13 07:14:18;;;;;;;2.60;1.07;;;;;;;11.60;70.74;99367.25;6146812;22;97404;-51
2023/03/13 07:16:44;;;;;;;10.20;1.40;;;;;;;11.64;70.90;99368.38;6173474;22;99229;-51
2023/03/13 07:19:10;;;;;;;2.63;1.00;;;;;;;11.66;70.82;99363.13;6174495;22;96804;-51
2023/03/13 07:21:35;;;;;;;2.97;1.03;;;;;;;11.71;71.02;99365.03;6174825;22;96699;-51
2023/03/13 07:24:01;;;;;;;2.40;0.90;;;;;;;11.74;70.82;99363.22;6174330;22;97278;-52
2023/03/13 07:26:26;;;;;;;3.73;1.10;;;;;;;11.80;70.91;99361.84;6174121;22;97155;-51
2023/03/13 07:28:51;;;;;;;2.00;0.90;;;;;;;11.84;70.95;99359.50;6174564;22;97212;-51
2023/03/13 07:31:19;;;;;;;3.50;1.13;;;;;;;11.91;70.84;99367.13;6174605;22;98729;-51
2023/03/13 07:33:45;;;;;;;1.70;1.10;;;;;;;11.95;70.83;99366.81;6174344;22;97300;-51
2023/03/13 07:36:13;;;;;;;3.67;1.10;;;;;;;11.98;71.15;99363.00;6174562;22;97641;-50
2023/03/13 07:38:38;;;;;;;2.80;1.50;;;;;;;12.05;71.15;99359.59;6172999;22;97044;-51
2023/03/13 07:41:04;;;;;;;1.10;0.93;;;;;;;12.15;71.03;99354.34;6174666;22;96980;-51
2023/03/13 07:43:30;;;;;;;1.70;1.23;;;;;;;12.21;71.60;99357.75;6175069;22;97634;-52
2023/03/13 07:45:59;;;;;;;2.57;1.23;;;;;;;12.28;71.69;99360.59;6174083;22;97083;-51
2023/03/13 07:48:29;;;;;;;2.90;1.17;;;;;;;12.38;71.78;99355.38;6173745;22;96715;-51
2023/03/13 07:50:55;;;;;;;0.90;0.90;;;;;;;12.48;71.38;99367.41;6173994;22;96479;-50
2023/03/13 07:53:21;;;;;;;1.43;1.33;;;;;;;12.52;71.83;99370.56;6174342;22;96987;-51
2023/03/13 07:55:53;;;;;;;1.53;1.20;;;;;;;12.60;72.24;99371.41;6174319;22;97308;-50
2023/03/13 07:58:18;;;;;;;1.60;1.50;;;;;;;12.67;72.15;99374.22;6174157;22;96935;-51
2023/03/13 08:00:44;;;;;;;1.47;1.20;;;;;;;12.75;71.90;99363.28;6174247;22;97054;-51
2023/03/13 08:03:09;;;;;;;2.30;1.27;;;;;;;12.82;72.25;99367.38;6173822;22;97251;-51
2023/03/13 08:05:34;;;;;;;1.27;1.20;;;;;;;12.90;72.31;99357.13;6173675;22;97535;-51
2023/03/13 08:08:00;;;;;;;2.30;1.10;;;;;;;12.96;72.52;99361.25;6173465;22;96811;-50
2023/03/13 08:10:25;;;;;;;2.00;1.80;;;;;;;13.04;72.41;99356.50;6173603;22;97714;-51
2023/03/13 08:12:50;;;;;;;1.50;1.40;;;;;;;13.13;72.42;99364.34;6173312;22;112191;-50
2023/03/13 08:15:17;;;;;;;1.53;1.43;;;;;;;13.19;72.33;99353.16;6173604;22;97051;-50
2023/03/13 08:17:42;;;;;;;1.90;1.67;;;;;;;13.27;72.33;99362.97;6173288;22;97041;-51
2023/03/13 08:20:09;;;;;;;1.90;1.70;;;;;;;13.35;72.22;99354.75;6174814;22;96994;-51
2023/03/13 08:22:35;;;;;;;1.93;1.83;;;;;;;13.42;72.29;99357.56;6173756;22;96932;-51
2023/03/13 08:25:01;;;;;;;2.13;1.97;;;;;;;13.51;72.41;99359.09;6174157;22;96935;-50
2023/03/13 08:27:28;;;;;;;5.33;2.07;;;;;;;13.59;72.65;99337.00;6174025;22;96781;-51
2023/03/13 08:29:54;;;;;;;2.60;1.87;;;;;;;13.66;72.52;99341.84;6174293;22;96795;-51
2023/03/13 08:32:20;;;;;;;4.27;2.43;;;;;;;13.74;72.38;99334.34;6173460;22;105777;-51
2023/03/13 08:34:46;;;;;;;2.33;2.00;;;;;;;13.81;72.65;99341.91;6173635;22;97039;-52
2023/03/13 08:37:14;;;;;;;2.33;2.23;;;;;;;13.92;72.61;99334.03;6173947;22;96615;-51
2023/03/13 08:39:40;;;;;;;3.83;2.97;;;;;;;14.03;72.40;99335.75;6174497;22;97240;-51
2023/03/13 08:42:10;;;;;;;3.00;2.80;;;;;;;14.14;72.31;99341.69;6173958;22;96688;-51
2023/03/13 08:44:35;;;;;;;2.53;2.33;;;;;;;14.26;72.39;99331.03;6174540;22;97808;-51
2023/03/13 08:47:00;;;;;;;2.63;2.47;;;;;;;14.34;72.14;99320.00;6174276;22;97052;-52
2023/03/13 08:49:26;;;;;;;3.33;2.87;;;;;;;14.40;72.14;99323.31;6174178;22;97098;-51
2023/03/13 08:51:51;;;;;;;2.80;2.60;;;;;;;14.45;72.14;99339.78;6172527;22;97057;-51
2023/03/13 08:54:16;;;;;;;2.57;2.37;;;;;;;14.52;72.00;99327.97;6173012;22;97065;-52
2023/03/13 08:56:42;;;;;;;2.97;2.77;;;;;;;14.60;71.80;99325.94;6173475;22;96662;-51
2023/03/13 08:59:09;;;;;;;3.37;3.17;;;;;;;14.63;71.70;99322.09;6174001;22;97124;-51
2023/03/13 09:01:35;;;;;;;3.23;3.03;;;;;;;14.65;71.65;99321.53;6174323;22;96721;-52
2023/03/13 09:04:02;;;;;;;5.20;3.60;;;;;;;14.67;71.69;99316.91;6173993;22;96602;-51
2023/03/13 09:06:27;;;;;;;4.13;3.27;;;;;;;14.74;71.43;99304.38;6173195;22;96830;-51
2023/03/13 09:08:56;;;;;;;3.90;3.57;;;;;;;14.80;71.54;99310.47;6173568;22;97220;-51
2023/03/13 09:11:22;;;;;;;3.27;2.97;;;;;;;14.89;71.48;99296.06;6173818;22;96612;-51
2023/03/13 09:13:49;;;;;;;3.73;3.50;;;;;;;14.95;71.34;99307.69;6173352;22;97034;-50
2023/03/13 09:16:17;;;;;;;3.10;2.90;;;;;;;15.00;71.15;99309.53;6173439;22;97006;-51
2023/03/13 09:18:43;;;;;;;4.43;3.07;;;;;;;15.03;71.02;99313.94;6173124;22;97348;-51
2023/03/13 09:21:13;;;;;;;3.40;3.10;;;;;;;15.05;70.96;99300.28;6173667;22;97042;-51
2023/03/13 09:23:38;;;;;;;3.03;2.87;;;;;;;15.08;71.03;99306.75;6172211;22;97036;-52
2023/03/13 09:26:04;;;;;;;7.43;3.10;;;;;;;15.10;70.96;99301.38;6172583;22;97028;-50
2023/03/13 09:28:30;;;;;;;3.10;2.90;;;;;;;15.10;70.76;99298.63;6173595;22;96579;-50
2023/03/13 09:31:05;;;;;;;3.17;2.97;;;;;;;15.10;70.52;99302.13;6173885;22;97391;-51
2023/03/13 09:33:30;;;;;;;2.90;2.60;;;;;;;15.12;70.80;99321.69;6172543;22;97019;-52
2023/03/13 09:35:56;;;;;;;2.97;2.10;;;;;;;15.16;70.57;99313.03;6173010;22;101698;-51
2023/03/13 09:38:21;;;;;;;3.10;2.67;;;;;;;15.14;70.51;99310.06;6172187;22;96947;-51
2023/03/13 09:40:49;;;;;;;2.20;2.10;;;;;;;15.15;70.55;99317.09;6172678;22;96912;-50
2023/03/13 09:43:29;;;;;;;2.33;2.23;;;;;;;15.14;70.30;99310.78;6173851;22;97860;-51
2023/03/13 09:46:00;;;;;;;2.40;2.20;;;;;;;15.17;70.43;99309.69;6174064;22;97168;-50
2023/03/13 09:48:37;;;;;;;2.23;2.10;;;;;;;15.19;69.92;99309.88;6173490;22;96926;-52
2023/03/13 09:51:23;;;;;;;2.10;1.87;;;;;;;15.21;70.34;99318.38;6173865;22;97324;-50
2023/03/13 09:53:52;;;;;;;1.83;1.60;;;;;;;15.24;70.42;99322.06;6174070;22;97095;-50
2023/03/13 09:56:23;;;;;;;3.13;1.77;;;;;;;15.25;70.21;99326.28;6174514;22;97784;-52
2023/03/13 09:58:57;;;;;;;2.20;2.00;;;;;;;15.21;70.24;99314.84;6173236;22;96629;-50
2023/03/13 10:01:29;;;;;;;2.13;1.70;;;;;;;15.19;70.25;99322.97;6173999;22;97309;-51
2023/03/13 10:04:11;;;;;;;1.83;1.77;;;;;;;15.16;70.42;99324.13;6172742;22;97147;-51
2023/03/13 10:06:42;;;;;;;1.53;1.43;;;;;;;15.15;70.46;99320.59;6172646;22;97005;-51
2023/03/13 10:09:19;;;;;;;1.63;1.53;;;;;;;15.16;70.40;99324.81;6168765;22;96987;-51
2023/03/13 10:11:53;;;;;;;1.60;1.50;;;;;;;15.16;70.42;99322.06;6173508;22;96760;-52
2023/03/13 10:14:26;;;;;;;1.60;1.60;;;;;;;15.13;70.46;99322.44;6172450;22;97049;-50
2023/03/13 10:17:09;;;;;;;1.73;1.63;;;;;;;15.13;70.36;99316.91;6173832;22;96987;-50
2023/03/13 10:19:38;;;;;;;2.13;2.00;;;;;;;15.15;70.61;99339.25;6173857;22;96528;-51
2023/03/13 10:22:14;;;;;;;2.13;1.93;;;;;;;15.25;70.63;99315.22;6173288;22;97362;-51
2023/03/13 10:24:39;;;;;;;2.93;1.87;;;;;;;15.36;70.54;99312.06;6174095;22;96662;-51
2023/03/13 10:27:04;;;;;;;2.63;1.97;;;;;;;15.47;70.45;99306.13;6172984;22;96954;-51
2023/03/13 10:29:30;;;;;;;2.30;1.97;;;;;;;15.56;70.13;99305.56;6173120;22;97247;-51
2023/03/13 10:31:58;;;;;;;5.03;2.53;;;;;;;15.69;70.04;99299.78;6172208;22;96676;-51
2023/03/13 10:34:51;;;;;;;2.50;2.17;;;;;;;15.84;69.22;99296.94;6172690;22;96827;-50
2023/03/13 10:37:31;;;;;;;4.10;1.70;;;;;;;15.96;69.04;99288.97;6174176;22;96558;-51
2023/03/13 10:40:23;;;;;;;1.77;1.53;;;;;;;15.99;68.55;99290.63;6173909;22;96784;-51
2023/03/13 10:42:51;;;;;;;3.10;1.60;;;;;;;16.12;69.33;99291.09;6174404;22;96486;-51
2023/03/13 10:45:20;;;;;;;1.83;1.73;;;;;;;16.28;69.13;99284.16;6174572;22;97068;-51
2023/03/13 10:47:54;;;;;;;1.37;1.27;;;;;;;16.46;69.00;99271.81;6174414;22;96763;-52
2023/03/13 10:50:22;;;;;;;1.17;1.17;;;;;;;16.69;68.97;99276.47;6175079;22;97172;-51
2023/03/13 10:52:49;;;;;;;5.00;1.73;;;;;;;16.89;68.69;99280.94;6174356;22;96513;-52
2023/03/13 10:55:20;;;;;;;1.70;1.60;;;;;;;16.95;67.33;99273.84;6174945;22;97230;-52
2023/03/13 10:58:01;;;;;;;4.83;1.50;;;;;;;16.87;66.86;99283.53;6173800;22;96638;-50
2023/03/13 11:00:27;;;;;;;2.50;1.60;;;;;;;16.84;67.92;99279.16;6174676;22;96690;-51
2023/03/13 11:02:53;;;;;;;1.53;1.40;;;;;;;16.83;67.83;99281.19;6174163;22;97218;-50
2023/03/13 11:05:25;;;;;;;1.83;1.73;;;;;;;16.90;67.65;99274.81;6174688;22;97166;-50
2023/03/13 11:07:51;;;;;;;1.97;1.87;;;;;;;17.00;67.74;99272.13;6174293;22;97160;-50
2023/03/13 11:10:19;;;;;;;1.73;1.60;;;;;;;17.03;67.53;99271.00;6174793;22;96996;-52
2023/03/13 11:12:50;;;;;;;1.77;1.67;;;;;;;17.02;67.34;99259.16;6146292;22;99337;-52
2023/03/13 11:15:20;;;;;;;2.60;2.10;;;;;;;17.11;67.44;99274.44;6175278;22;97170;-52
2023/03/13 11:18:03;;;;;;;3.60;1.60;;;;;;;17.28;67.26;99268.16;6174659;22;96974;-51
2023/03/13 11:20:38;;;;;;;1.67;1.50;;;;;;;17.55;66.96;99257.84;6175137;22;97071;-52
2023/03/13 11:23:22;;;;;;;2.47;2.00;;;;;;;17.79;66.51;99249.41;6174471;22;97297;-51
2023/03/13 11:26:12;;;;;;;1.50;1.40;;;;;;;17.96;65.89;99243.03;6174633;22;97307;-52
2023/03/13 11:29:01;;;;;;;1.20;1.20;;;;;;;18.16;64.98;99246.66;6173899;22;97035;-52
2023/03/13 11:31:43;;;;;;;2.70;1.70;;;;;;;18.15;64.38;99248.00;6175150;22;96580;-51
2023/03/13 11:34:49;;;;;;;2.20;1.60;;;;;;;18.25;63.57;99235.59;6174358;22;96948;-51
2023/03/13 11:37:18;;;;;;;1.83;1.50;;;;;;;18.25;65.20;99235.59;6021612;23;96874;-51